sensor_id;sensor_type;location;lat;lon;timestamp;P1;durP1;ratioP1;P2;durP2;ratioP2
69463;SDS011;56665;41.106;16.688;2023-06-01T00:00:06;20.20;;;10.70;;
69463;SDS011;56665;41.106;16.688;2023-06-01T00:03:14;21.15;;;11.57;;
69463;SDS011;56665;41.106;16.688;2023-06-01T00:06:18;23.30;;;12.65;;
69463;SDS011;56665;41.106;16.688;2023-06-01T00:09:22;18.85;;;11.05;;
69463;SDS011;56665;41.106;16.688;2023-06-01T00:12:26;19.50;;;11.73;;
69463;SDS011;56665;41.106;16.688;2023-06-01T00:15:30;21.93;;;11.73;;
69463;SDS011;56665;41.106;16.688;2023-06-01T00:18:33;22.15;;;12.70;;
69463;SDS011;56665;41.106;16.688;2023-06-01T00:21:37;24.70;;;13.13;;
69463;SDS011;56665;41.106;16.688;2023-06-01T00:24:41;28.00;;;13.25;;
69463;SDS011;56665;41.106;16.688;2023-06-01T00:27:45;25.35;;;13.15;;
69463;SDS011;56665;41.106;16.688;2023-06-01T00:30:49;24.00;;;13.20;;
69463;SDS011;56665;41.106;16.688;2023-06-01T00:33:53;26.52;;;12.50;;
69463;SDS011;56665;41.106;16.688;2023-06-01T00:36:57;25.65;;;12.93;;
69463;SDS011;56665;41.106;16.688;2023-06-01T00:40:00;23.23;;;12.63;;
69463;SDS011;56665;41.106;16.688;2023-06-01T00:43:04;23.65;;;12.18;;
69463;SDS011;56665;41.106;16.688;2023-06-01T00:46:08;24.23;;;13.17;;
69463;SDS011;56665;41.106;16.688;2023-06-01T00:49:13;26.00;;;13.13;;
69463;SDS011;56665;41.106;16.688;2023-06-01T00:52:17;26.60;;;13.65;;
69463;SDS011;56665;41.106;16.688;2023-06-01T00:55:21;28.10;;;13.38;;
69463;SDS011;56665;41.106;16.688;2023-06-01T00:58:24;26.67;;;13.60;;
69463;SDS011;56665;41.106;16.688;2023-06-01T01:01:28;27.57;;;13.80;;
69463;SDS011;56665;41.106;16.688;2023-06-01T01:04:32;26.40;;;14.75;;
69463;SDS011;56665;41.106;16.688;2023-06-01T01:07:55;30.02;;;14.80;;
69463;SDS011;56665;41.106;16.688;2023-06-01T01:14:22;26.15;;;14.43;;
69463;SDS011;56665;41.106;16.688;2023-06-01T01:20:37;25.42;;;12.95;;
69463;SDS011;56665;41.106;16.688;2023-06-01T01:23:48;25.65;;;13.80;;
69463;SDS011;56665;41.106;16.688;2023-06-01T01:30:29;22.05;;;13.00;;
69463;SDS011;56665;41.106;16.688;2023-06-01T01:33:34;21.40;;;12.70;;
69463;SDS011;56665;41.106;16.688;2023-06-01T01:36:38;23.15;;;12.15;;
69463;SDS011;56665;41.106;16.688;2023-06-01T01:39:42;20.30;;;12.55;;
69463;SDS011;56665;41.106;16.688;2023-06-01T01:42:46;19.25;;;11.95;;
69463;SDS011;56665;41.106;16.688;2023-06-01T01:46:25;18.83;;;11.60;;
69463;SDS011;56665;41.106;16.688;2023-06-01T01:49:46;20.37;;;11.50;;
69463;SDS011;56665;41.106;16.688;2023-06-01T01:52:57;22.20;;;11.73;;
69463;SDS011;56665;41.106;16.688;2023-06-01T01:56:03;20.00;;;11.95;;
69463;SDS011;56665;41.106;16.688;2023-06-01T01:59:09;18.90;;;11.30;;
69463;SDS011;56665;41.106;16.688;2023-06-01T02:02:13;20.15;;;11.45;;
69463;SDS011;56665;41.106;16.688;2023-06-01T02:05:17;19.07;;;11.10;;
69463;SDS011;56665;41.106;16.688;2023-06-01T02:08:21;17.30;;;11.13;;
69463;SDS011;56665;41.106;16.688;2023-06-01T02:11:25;17.80;;;11.43;;
69463;SDS011;56665;41.106;16.688;2023-06-01T02:14:29;16.40;;;9.98;;
69463;SDS011;56665;41.106;16.688;2023-06-01T02:17:33;15.30;;;10.43;;
69463;SDS011;56665;41.106;16.688;2023-06-01T02:20:37;16.20;;;11.20;;
69463;SDS011;56665;41.106;16.688;2023-06-01T02:23:41;15.85;;;9.90;;
69463;SDS011;56665;41.106;16.688;2023-06-01T02:26:46;16.38;;;10.00;;
69463;SDS011;56665;41.106;16.688;2023-06-01T02:29:57;15.07;;;10.02;;
69463;SDS011;56665;41.106;16.688;2023-06-01T02:33:00;15.55;;;9.18;;
69463;SDS011;56665;41.106;16.688;2023-06-01T02:36:05;17.27;;;9.67;;
69463;SDS011;56665;41.106;16.688;2023-06-01T02:39:09;16.15;;;10.02;;
69463;SDS011;56665;41.106;16.688;2023-06-01T02:42:12;14.23;;;9.25;;
69463;SDS011;56665;41.106;16.688;2023-06-01T02:45:16;14.45;;;9.38;;
69463;SDS011;56665;41.106;16.688;2023-06-01T02:48:20;14.82;;;9.20;;
69463;SDS011;56665;41.106;16.688;2023-06-01T02:51:25;14.80;;;8.80;;
69463;SDS011;56665;41.106;16.688;2023-06-01T02:54:39;16.10;;;9.05;;
69463;SDS011;56665;41.106;16.688;2023-06-01T02:58:00;15.45;;;9.40;;
69463;SDS011;56665;41.106;16.688;2023-06-01T03:01:07;17.25;;;9.45;;
69463;SDS011;56665;41.106;16.688;2023-06-01T03:04:15;13.85;;;8.80;;
69463;SDS011;56665;41.106;16.688;2023-06-01T03:07:19;13.30;;;8.27;;
69463;SDS011;56665;41.106;16.688;2023-06-01T03:10:26;13.35;;;8.23;;
69463;SDS011;56665;41.106;16.688;2023-06-01T03:13:29;12.98;;;8.30;;
69463;SDS011;56665;41.106;16.688;2023-06-01T03:16:33;12.93;;;8.23;;
69463;SDS011;56665;41.106;16.688;2023-06-01T03:19:46;15.55;;;7.97;;
69463;SDS011;56665;41.106;16.688;2023-06-01T03:22:58;12.90;;;8.10;;
69463;SDS011;56665;41.106;16.688;2023-06-01T03:26:01;12.65;;;8.63;;
69463;SDS011;56665;41.106;16.688;2023-06-01T03:29:07;13.63;;;8.35;;
69463;SDS011;56665;41.106;16.688;2023-06-01T03:32:13;11.52;;;7.50;;
69463;SDS011;56665;41.106;16.688;2023-06-01T03:35:17;12.77;;;8.20;;
69463;SDS011;56665;41.106;16.688;2023-06-01T03:38:21;14.50;;;8.10;;
69463;SDS011;56665;41.106;16.688;2023-06-01T03:41:26;15.23;;;8.50;;
69463;SDS011;56665;41.106;16.688;2023-06-01T03:44:30;14.82;;;8.65;;
69463;SDS011;56665;41.106;16.688;2023-06-01T03:47:34;14.88;;;8.23;;
69463;SDS011;56665;41.106;16.688;2023-06-01T03:50:38;14.05;;;8.38;;
69463;SDS011;56665;41.106;16.688;2023-06-01T03:53:42;13.03;;;8.83;;
69463;SDS011;56665;41.106;16.688;2023-06-01T03:56:46;14.52;;;8.80;;
69463;SDS011;56665;41.106;16.688;2023-06-01T03:59:51;16.60;;;9.10;;
69463;SDS011;56665;41.106;16.688;2023-06-01T04:02:56;14.32;;;8.13;;
69463;SDS011;56665;41.106;16.688;2023-06-01T04:06:01;15.18;;;7.60;;
69463;SDS011;56665;41.106;16.688;2023-06-01T04:09:06;17.10;;;8.37;;
69463;SDS011;56665;41.106;16.688;2023-06-01T04:12:13;16.08;;;8.45;;
69463;SDS011;56665;41.106;16.688;2023-06-01T04:15:18;16.90;;;8.93;;
69463;SDS011;56665;41.106;16.688;2023-06-01T04:18:22;15.73;;;8.88;;
69463;SDS011;56665;41.106;16.688;2023-06-01T04:21:35;15.95;;;9.18;;
69463;SDS011;56665;41.106;16.688;2023-06-01T04:24:40;18.20;;;9.13;;
69463;SDS011;56665;41.106;16.688;2023-06-01T04:27:45;21.35;;;9.52;;
69463;SDS011;56665;41.106;16.688;2023-06-01T04:30:50;17.13;;;9.20;;
69463;SDS011;56665;41.106;16.688;2023-06-01T04:33:54;16.05;;;8.75;;
69463;SDS011;56665;41.106;16.688;2023-06-01T04:37:02;16.05;;;9.35;;
69463;SDS011;56665;41.106;16.688;2023-06-01T04:40:08;12.30;;;7.87;;
69463;SDS011;56665;41.106;16.688;2023-06-01T04:43:14;13.90;;;8.80;;
69463;SDS011;56665;41.106;16.688;2023-06-01T04:46:23;16.73;;;8.98;;
69463;SDS011;56665;41.106;16.688;2023-06-01T04:49:31;14.50;;;8.63;;
69463;SDS011;56665;41.106;16.688;2023-06-01T04:52:36;14.80;;;8.38;;
69463;SDS011;56665;41.106;16.688;2023-06-01T04:55:40;14.53;;;8.43;;
69463;SDS011;56665;41.106;16.688;2023-06-01T04:58:47;15.70;;;9.50;;
69463;SDS011;56665;41.106;16.688;2023-06-01T05:01:51;16.98;;;9.13;;
69463;SDS011;56665;41.106;16.688;2023-06-01T05:04:55;14.88;;;8.77;;
69463;SDS011;56665;41.106;16.688;2023-06-01T05:07:59;15.75;;;9.13;;
69463;SDS011;56665;41.106;16.688;2023-06-01T05:11:04;17.43;;;9.57;;
69463;SDS011;56665;41.106;16.688;2023-06-01T05:14:09;12.90;;;8.57;;
69463;SDS011;56665;41.106;16.688;2023-06-01T05:17:13;15.75;;;9.70;;
69463;SDS011;56665;41.106;16.688;2023-06-01T05:20:17;12.48;;;8.63;;
69463;SDS011;56665;41.106;16.688;2023-06-01T05:23:26;17.17;;;9.30;;
69463;SDS011;56665;41.106;16.688;2023-06-01T05:26:30;13.90;;;9.03;;
69463;SDS011;56665;41.106;16.688;2023-06-01T05:29:35;14.15;;;9.48;;
69463;SDS011;56665;41.106;16.688;2023-06-01T05:32:39;16.23;;;9.48;;
69463;SDS011;56665;41.106;16.688;2023-06-01T05:35:49;19.35;;;9.93;;
69463;SDS011;56665;41.106;16.688;2023-06-01T05:38:56;15.02;;;10.27;;
69463;SDS011;56665;41.106;16.688;2023-06-01T05:42:00;16.00;;;9.33;;
69463;SDS011;56665;41.106;16.688;2023-06-01T05:45:11;17.10;;;9.02;;
69463;SDS011;56665;41.106;16.688;2023-06-01T05:48:15;17.08;;;8.88;;
69463;SDS011;56665;41.106;16.688;2023-06-01T05:51:22;15.10;;;8.60;;
69463;SDS011;56665;41.106;16.688;2023-06-01T05:54:26;12.90;;;8.48;;
69463;SDS011;56665;41.106;16.688;2023-06-01T05:57:30;13.67;;;7.67;;
69463;SDS011;56665;41.106;16.688;2023-06-01T06:00:34;13.43;;;7.88;;
69463;SDS011;56665;41.106;16.688;2023-06-01T06:03:39;12.20;;;7.13;;
69463;SDS011;56665;41.106;16.688;2023-06-01T06:06:43;10.63;;;6.50;;
69463;SDS011;56665;41.106;16.688;2023-06-01T06:09:47;9.93;;;6.40;;
69463;SDS011;56665;41.106;16.688;2023-06-01T06:12:51;9.07;;;6.43;;
69463;SDS011;56665;41.106;16.688;2023-06-01T06:15:55;8.48;;;6.15;;
69463;SDS011;56665;41.106;16.688;2023-06-01T06:18:59;11.23;;;7.40;;
69463;SDS011;56665;41.106;16.688;2023-06-01T06:22:02;11.02;;;6.93;;
69463;SDS011;56665;41.106;16.688;2023-06-01T06:25:06;10.57;;;6.78;;
69463;SDS011;56665;41.106;16.688;2023-06-01T06:28:11;9.17;;;6.63;;
69463;SDS011;56665;41.106;16.688;2023-06-01T06:31:15;9.02;;;5.97;;
69463;SDS011;56665;41.106;16.688;2023-06-01T06:34:19;9.07;;;5.65;;
69463;SDS011;56665;41.106;16.688;2023-06-01T06:37:23;7.53;;;5.40;;
69463;SDS011;56665;41.106;16.688;2023-06-01T06:40:26;8.88;;;5.53;;
69463;SDS011;56665;41.106;16.688;2023-06-01T06:43:30;7.55;;;5.70;;
69463;SDS011;56665;41.106;16.688;2023-06-01T06:46:34;7.35;;;5.00;;
69463;SDS011;56665;41.106;16.688;2023-06-01T06:49:38;8.07;;;5.60;;
69463;SDS011;56665;41.106;16.688;2023-06-01T06:52:41;10.10;;;5.70;;
69463;SDS011;56665;41.106;16.688;2023-06-01T06:55:45;7.53;;;5.50;;
69463;SDS011;56665;41.106;16.688;2023-06-01T06:58:50;9.02;;;5.70;;
69463;SDS011;56665;41.106;16.688;2023-06-01T07:01:54;8.13;;;6.45;;
69463;SDS011;56665;41.106;16.688;2023-06-01T07:04:57;9.75;;;6.63;;
69463;SDS011;56665;41.106;16.688;2023-06-01T07:08:01;9.65;;;6.15;;
69463;SDS011;56665;41.106;16.688;2023-06-01T07:11:05;7.43;;;5.43;;
69463;SDS011;56665;41.106;16.688;2023-06-01T07:14:08;11.02;;;5.50;;
69463;SDS011;56665;41.106;16.688;2023-06-01T07:17:12;11.20;;;5.53;;
69463;SDS011;56665;41.106;16.688;2023-06-01T07:20:15;8.48;;;5.55;;
69463;SDS011;56665;41.106;16.688;2023-06-01T07:23:19;14.07;;;6.45;;
69463;SDS011;56665;41.106;16.688;2023-06-01T07:26:23;13.57;;;6.45;;
69463;SDS011;56665;41.106;16.688;2023-06-01T07:29:28;10.90;;;6.93;;
69463;SDS011;56665;41.106;16.688;2023-06-01T07:32:32;9.93;;;6.45;;
69463;SDS011;56665;41.106;16.688;2023-06-01T07:35:35;10.20;;;6.07;;
69463;SDS011;56665;41.106;16.688;2023-06-01T07:38:39;9.68;;;6.13;;
69463;SDS011;56665;41.106;16.688;2023-06-01T07:41:46;10.23;;;6.10;;
69463;SDS011;56665;41.106;16.688;2023-06-01T07:44:50;12.33;;;6.03;;
69463;SDS011;56665;41.106;16.688;2023-06-01T07:47:54;9.90;;;6.18;;
69463;SDS011;56665;41.106;16.688;2023-06-01T07:50:58;8.60;;;5.78;;
69463;SDS011;56665;41.106;16.688;2023-06-01T07:54:01;10.88;;;5.80;;
69463;SDS011;56665;41.106;16.688;2023-06-01T07:57:05;12.00;;;6.22;;
69463;SDS011;56665;41.106;16.688;2023-06-01T08:00:09;8.80;;;5.93;;
69463;SDS011;56665;41.106;16.688;2023-06-01T08:03:15;12.23;;;6.20;;
69463;SDS011;56665;41.106;16.688;2023-06-01T08:06:19;13.45;;;6.10;;
69463;SDS011;56665;41.106;16.688;2023-06-01T08:09:27;10.93;;;5.82;;
69463;SDS011;56665;41.106;16.688;2023-06-01T08:12:31;9.95;;;6.35;;
69463;SDS011;56665;41.106;16.688;2023-06-01T08:15:35;9.27;;;6.07;;
69463;SDS011;56665;41.106;16.688;2023-06-01T08:18:41;9.95;;;6.00;;
69463;SDS011;56665;41.106;16.688;2023-06-01T08:21:44;8.13;;;5.72;;
69463;SDS011;56665;41.106;16.688;2023-06-01T08:24:49;7.93;;;5.85;;
69463;SDS011;56665;41.106;16.688;2023-06-01T08:27:54;10.90;;;5.93;;
69463;SDS011;56665;41.106;16.688;2023-06-01T08:30:58;10.10;;;5.77;;
69463;SDS011;56665;41.106;16.688;2023-06-01T08:34:01;8.75;;;5.88;;
69463;SDS011;56665;41.106;16.688;2023-06-01T08:37:05;7.80;;;5.47;;
69463;SDS011;56665;41.106;16.688;2023-06-01T08:40:09;9.48;;;5.72;;
69463;SDS011;56665;41.106;16.688;2023-06-01T08:43:20;8.93;;;5.88;;
69463;SDS011;56665;41.106;16.688;2023-06-01T08:46:25;12.90;;;6.28;;
69463;SDS011;56665;41.106;16.688;2023-06-01T08:49:33;6.40;;;5.03;;
69463;SDS011;56665;41.106;16.688;2023-06-01T08:52:38;12.80;;;5.90;;
69463;SDS011;56665;41.106;16.688;2023-06-01T08:55:41;14.77;;;5.93;;
69463;SDS011;56665;41.106;16.688;2023-06-01T08:58:45;12.13;;;5.50;;
69463;SDS011;56665;41.106;16.688;2023-06-01T09:01:50;11.75;;;5.90;;
69463;SDS011;56665;41.106;16.688;2023-06-01T09:04:56;29.30;;;6.75;;
69463;SDS011;56665;41.106;16.688;2023-06-01T09:07:59;23.17;;;7.22;;
69463;SDS011;56665;41.106;16.688;2023-06-01T09:11:03;27.75;;;7.45;;
69463;SDS011;56665;41.106;16.688;2023-06-01T09:14:20;11.80;;;5.82;;
69463;SDS011;56665;41.106;16.688;2023-06-01T09:17:27;14.73;;;5.95;;
69463;SDS011;56665;41.106;16.688;2023-06-01T09:20:30;15.05;;;5.80;;
69463;SDS011;56665;41.106;16.688;2023-06-01T09:23:35;6.88;;;5.18;;
69463;SDS011;56665;41.106;16.688;2023-06-01T09:26:38;8.82;;;5.38;;
69463;SDS011;56665;41.106;16.688;2023-06-01T09:29:49;9.07;;;6.10;;
69463;SDS011;56665;41.106;16.688;2023-06-01T09:33:12;8.53;;;5.40;;
69463;SDS011;56665;41.106;16.688;2023-06-01T09:36:23;18.05;;;6.25;;
69463;SDS011;56665;41.106;16.688;2023-06-01T09:39:28;33.55;;;7.50;;
69463;SDS011;56665;41.106;16.688;2023-06-01T09:42:36;17.05;;;5.72;;
69463;SDS011;56665;41.106;16.688;2023-06-01T09:45:40;16.67;;;5.75;;
69463;SDS011;56665;41.106;16.688;2023-06-01T09:48:43;8.37;;;5.50;;
69463;SDS011;56665;41.106;16.688;2023-06-01T09:51:48;7.00;;;5.10;;
69463;SDS011;56665;41.106;16.688;2023-06-01T09:54:52;8.57;;;5.88;;
69463;SDS011;56665;41.106;16.688;2023-06-01T09:58:17;7.30;;;5.35;;
69463;SDS011;56665;41.106;16.688;2023-06-01T10:01:26;7.20;;;5.15;;
69463;SDS011;56665;41.106;16.688;2023-06-01T10:04:32;11.15;;;5.22;;
69463;SDS011;56665;41.106;16.688;2023-06-01T10:07:38;6.97;;;4.75;;
69463;SDS011;56665;41.106;16.688;2023-06-01T10:10:46;8.02;;;4.80;;
69463;SDS011;56665;41.106;16.688;2023-06-01T10:13:51;7.93;;;5.10;;
69463;SDS011;56665;41.106;16.688;2023-06-01T10:16:55;7.32;;;4.90;;
69463;SDS011;56665;41.106;16.688;2023-06-01T10:19:59;7.40;;;4.82;;
69463;SDS011;56665;41.106;16.688;2023-06-01T10:23:05;8.68;;;5.35;;
69463;SDS011;56665;41.106;16.688;2023-06-01T10:26:11;5.70;;;4.50;;
69463;SDS011;56665;41.106;16.688;2023-06-01T10:29:18;8.82;;;5.45;;
69463;SDS011;56665;41.106;16.688;2023-06-01T10:38:44;6.73;;;5.10;;
69463;SDS011;56665;41.106;16.688;2023-06-01T10:41:48;7.80;;;4.88;;
69463;SDS011;56665;41.106;16.688;2023-06-01T10:44:52;8.50;;;4.95;;
69463;SDS011;56665;41.106;16.688;2023-06-01T10:47:55;14.73;;;6.03;;
69463;SDS011;56665;41.106;16.688;2023-06-01T10:51:16;8.63;;;5.30;;
69463;SDS011;56665;41.106;16.688;2023-06-01T10:54:29;9.90;;;4.75;;
69463;SDS011;56665;41.106;16.688;2023-06-01T10:57:33;6.28;;;4.78;;
69463;SDS011;56665;41.106;16.688;2023-06-01T11:00:38;7.55;;;4.80;;
69463;SDS011;56665;41.106;16.688;2023-06-01T11:03:43;10.75;;;6.00;;
69463;SDS011;56665;41.106;16.688;2023-06-01T11:06:48;11.70;;;5.03;;
69463;SDS011;56665;41.106;16.688;2023-06-01T11:09:52;9.90;;;5.28;;
69463;SDS011;56665;41.106;16.688;2023-06-01T11:13:14;9.85;;;5.10;;
69463;SDS011;56665;41.106;16.688;2023-06-01T11:19:30;8.43;;;5.20;;
69463;SDS011;56665;41.106;16.688;2023-06-01T11:22:35;9.68;;;5.55;;
69463;SDS011;56665;41.106;16.688;2023-06-01T11:25:41;10.10;;;5.32;;
69463;SDS011;56665;41.106;16.688;2023-06-01T11:28:46;9.70;;;5.50;;
69463;SDS011;56665;41.106;16.688;2023-06-01T11:31:57;8.45;;;5.40;;
69463;SDS011;56665;41.106;16.688;2023-06-01T11:35:17;10.07;;;5.65;;
69463;SDS011;56665;41.106;16.688;2023-06-01T11:41:32;7.15;;;5.03;;
69463;SDS011;56665;41.106;16.688;2023-06-01T11:44:37;6.68;;;5.75;;
69463;SDS011;56665;41.106;16.688;2023-06-01T11:47:41;11.55;;;5.72;;
69463;SDS011;56665;41.106;16.688;2023-06-01T11:50:47;32.92;;;7.60;;
69463;SDS011;56665;41.106;16.688;2023-06-01T11:53:50;12.50;;;5.50;;
69463;SDS011;56665;41.106;16.688;2023-06-01T11:56:55;9.40;;;5.40;;
69463;SDS011;56665;41.106;16.688;2023-06-01T11:59:59;14.32;;;5.55;;
69463;SDS011;56665;41.106;16.688;2023-06-01T12:03:06;17.65;;;6.40;;
69463;SDS011;56665;41.106;16.688;2023-06-01T12:06:20;30.48;;;6.75;;
69463;SDS011;56665;41.106;16.688;2023-06-01T12:09:25;14.07;;;5.93;;
69463;SDS011;56665;41.106;16.688;2023-06-01T12:12:29;12.43;;;5.95;;
69463;SDS011;56665;41.106;16.688;2023-06-01T12:15:33;23.10;;;6.55;;
69463;SDS011;56665;41.106;16.688;2023-06-01T12:18:36;26.42;;;7.20;;
69463;SDS011;56665;41.106;16.688;2023-06-01T12:21:40;9.63;;;5.55;;
69463;SDS011;56665;41.106;16.688;2023-06-01T12:24:50;15.07;;;5.53;;
69463;SDS011;56665;41.106;16.688;2023-06-01T12:28:04;8.48;;;4.93;;
69463;SDS011;56665;41.106;16.688;2023-06-01T12:31:14;13.32;;;6.10;;
69463;SDS011;56665;41.106;16.688;2023-06-01T12:34:18;7.93;;;5.57;;
69463;SDS011;56665;41.106;16.688;2023-06-01T12:37:22;9.18;;;5.50;;
69463;SDS011;56665;41.106;16.688;2023-06-01T12:40:27;10.40;;;5.10;;
69463;SDS011;56665;41.106;16.688;2023-06-01T12:43:31;6.10;;;4.97;;
69463;SDS011;56665;41.106;16.688;2023-06-01T12:46:35;7.35;;;5.43;;
69463;SDS011;56665;41.106;16.688;2023-06-01T12:49:39;9.90;;;5.38;;
69463;SDS011;56665;41.106;16.688;2023-06-01T12:52:43;8.57;;;4.80;;
69463;SDS011;56665;41.106;16.688;2023-06-01T12:55:47;7.20;;;5.18;;
69463;SDS011;56665;41.106;16.688;2023-06-01T12:58:51;9.05;;;5.13;;
69463;SDS011;56665;41.106;16.688;2023-06-01T13:01:55;6.50;;;4.90;;
69463;SDS011;56665;41.106;16.688;2023-06-01T13:04:58;8.60;;;5.47;;
69463;SDS011;56665;41.106;16.688;2023-06-01T13:08:02;9.63;;;5.05;;
69463;SDS011;56665;41.106;16.688;2023-06-01T13:11:06;8.45;;;5.38;;
69463;SDS011;56665;41.106;16.688;2023-06-01T13:14:10;7.25;;;4.82;;
69463;SDS011;56665;41.106;16.688;2023-06-01T13:17:13;7.30;;;4.65;;
69463;SDS011;56665;41.106;16.688;2023-06-01T13:20:17;7.53;;;5.25;;
69463;SDS011;56665;41.106;16.688;2023-06-01T13:23:21;7.88;;;5.53;;
69463;SDS011;56665;41.106;16.688;2023-06-01T13:26:24;7.57;;;5.25;;
69463;SDS011;56665;41.106;16.688;2023-06-01T13:29:30;8.35;;;4.90;;
69463;SDS011;56665;41.106;16.688;2023-06-01T13:32:34;8.23;;;5.25;;
69463;SDS011;56665;41.106;16.688;2023-06-01T13:35:37;6.50;;;5.05;;
69463;SDS011;56665;41.106;16.688;2023-06-01T13:38:41;8.13;;;5.07;;
69463;SDS011;56665;41.106;16.688;2023-06-01T13:41:45;7.53;;;5.27;;
69463;SDS011;56665;41.106;16.688;2023-06-01T13:44:49;6.93;;;5.15;;
69463;SDS011;56665;41.106;16.688;2023-06-01T13:47:52;8.77;;;5.50;;
69463;SDS011;56665;41.106;16.688;2023-06-01T13:50:58;8.63;;;5.40;;
69463;SDS011;56665;41.106;16.688;2023-06-01T13:54:02;8.20;;;5.10;;
69463;SDS011;56665;41.106;16.688;2023-06-01T13:57:07;8.13;;;5.37;;
69463;SDS011;56665;41.106;16.688;2023-06-01T14:00:11;7.85;;;5.45;;
69463;SDS011;56665;41.106;16.688;2023-06-01T14:03:20;6.82;;;5.03;;
69463;SDS011;56665;41.106;16.688;2023-06-01T14:06:23;7.18;;;5.25;;
69463;SDS011;56665;41.106;16.688;2023-06-01T14:09:27;7.88;;;5.50;;
69463;SDS011;56665;41.106;16.688;2023-06-01T14:12:31;8.75;;;5.10;;
69463;SDS011;56665;41.106;16.688;2023-06-01T14:15:34;7.90;;;5.55;;
69463;SDS011;56665;41.106;16.688;2023-06-01T14:18:38;8.35;;;5.60;;
69463;SDS011;56665;41.106;16.688;2023-06-01T14:21:42;9.23;;;5.55;;
69463;SDS011;56665;41.106;16.688;2023-06-01T14:24:46;8.60;;;5.88;;
69463;SDS011;56665;41.106;16.688;2023-06-01T14:27:49;7.30;;;5.60;;
69463;SDS011;56665;41.106;16.688;2023-06-01T14:30:53;7.68;;;5.50;;
69463;SDS011;56665;41.106;16.688;2023-06-01T14:33:57;7.43;;;5.13;;
69463;SDS011;56665;41.106;16.688;2023-06-01T14:37:01;8.43;;;5.50;;
69463;SDS011;56665;41.106;16.688;2023-06-01T14:40:05;6.63;;;5.03;;
69463;SDS011;56665;41.106;16.688;2023-06-01T14:43:09;8.80;;;5.75;;
69463;SDS011;56665;41.106;16.688;2023-06-01T14:46:14;8.13;;;5.40;;
69463;SDS011;56665;41.106;16.688;2023-06-01T14:49:18;7.70;;;5.18;;
69463;SDS011;56665;41.106;16.688;2023-06-01T14:52:23;7.97;;;5.20;;
69463;SDS011;56665;41.106;16.688;2023-06-01T14:55:26;7.07;;;4.85;;
69463;SDS011;56665;41.106;16.688;2023-06-01T14:58:30;8.45;;;5.38;;
69463;SDS011;56665;41.106;16.688;2023-06-01T15:01:34;7.53;;;5.00;;
69463;SDS011;56665;41.106;16.688;2023-06-01T15:04:39;7.60;;;5.07;;
69463;SDS011;56665;41.106;16.688;2023-06-01T15:07:43;6.60;;;4.85;;
69463;SDS011;56665;41.106;16.688;2023-06-01T15:10:46;9.45;;;5.18;;
69463;SDS011;56665;41.106;16.688;2023-06-01T15:13:51;8.05;;;5.30;;
69463;SDS011;56665;41.106;16.688;2023-06-01T15:16:56;7.85;;;5.60;;
69463;SDS011;56665;41.106;16.688;2023-06-01T15:19:59;8.65;;;5.90;;
69463;SDS011;56665;41.106;16.688;2023-06-01T15:23:05;8.32;;;5.15;;
69463;SDS011;56665;41.106;16.688;2023-06-01T15:26:09;7.82;;;5.65;;
69463;SDS011;56665;41.106;16.688;2023-06-01T15:29:13;7.00;;;5.60;;
69463;SDS011;56665;41.106;16.688;2023-06-01T15:32:17;8.40;;;6.20;;
69463;SDS011;56665;41.106;16.688;2023-06-01T15:35:20;9.20;;;5.60;;
69463;SDS011;56665;41.106;16.688;2023-06-01T15:38:24;8.60;;;5.50;;
69463;SDS011;56665;41.106;16.688;2023-06-01T15:41:28;7.55;;;5.03;;
69463;SDS011;56665;41.106;16.688;2023-06-01T15:44:32;9.83;;;6.17;;
69463;SDS011;56665;41.106;16.688;2023-06-01T15:47:35;8.70;;;5.85;;
69463;SDS011;56665;41.106;16.688;2023-06-01T15:50:39;9.57;;;5.90;;
69463;SDS011;56665;41.106;16.688;2023-06-01T15:53:43;8.63;;;5.90;;
69463;SDS011;56665;41.106;16.688;2023-06-01T15:56:47;9.07;;;5.82;;
69463;SDS011;56665;41.106;16.688;2023-06-01T15:59:51;8.73;;;5.82;;
69463;SDS011;56665;41.106;16.688;2023-06-01T16:02:54;9.38;;;6.18;;
69463;SDS011;56665;41.106;16.688;2023-06-01T16:05:58;10.18;;;6.43;;
69463;SDS011;56665;41.106;16.688;2023-06-01T16:09:02;9.88;;;6.38;;
69463;SDS011;56665;41.106;16.688;2023-06-01T16:12:05;10.27;;;6.30;;
69463;SDS011;56665;41.106;16.688;2023-06-01T16:15:09;58.80;;;33.00;;
69463;SDS011;56665;41.106;16.688;2023-06-01T16:18:13;20.50;;;12.02;;
69463;SDS011;56665;41.106;16.688;2023-06-01T16:21:17;12.70;;;8.30;;
69463;SDS011;56665;41.106;16.688;2023-06-01T16:24:20;10.32;;;6.50;;
69463;SDS011;56665;41.106;16.688;2023-06-01T16:27:24;6.30;;;5.30;;
69463;SDS011;56665;41.106;16.688;2023-06-01T16:30:28;9.27;;;5.83;;
69463;SDS011;56665;41.106;16.688;2023-06-01T16:33:32;9.48;;;5.93;;
69463;SDS011;56665;41.106;16.688;2023-06-01T16:36:35;9.27;;;6.32;;
69463;SDS011;56665;41.106;16.688;2023-06-01T16:39:39;7.57;;;5.82;;
69463;SDS011;56665;41.106;16.688;2023-06-01T16:42:43;8.32;;;5.65;;
69463;SDS011;56665;41.106;16.688;2023-06-01T16:45:47;8.02;;;5.85;;
69463;SDS011;56665;41.106;16.688;2023-06-01T16:48:51;8.60;;;5.32;;
69463;SDS011;56665;41.106;16.688;2023-06-01T16:51:55;8.02;;;4.50;;
69463;SDS011;56665;41.106;16.688;2023-06-01T16:54:58;7.53;;;3.92;;
69463;SDS011;56665;41.106;16.688;2023-06-01T16:58:02;5.88;;;4.18;;
69463;SDS011;56665;41.106;16.688;2023-06-01T17:01:06;6.72;;;3.88;;
69463;SDS011;56665;41.106;16.688;2023-06-01T17:04:10;6.60;;;3.95;;
69463;SDS011;56665;41.106;16.688;2023-06-01T17:07:13;5.43;;;3.70;;
69463;SDS011;56665;41.106;16.688;2023-06-01T17:10:17;8.38;;;3.60;;
69463;SDS011;56665;41.106;16.688;2023-06-01T17:13:21;5.20;;;3.42;;
69463;SDS011;56665;41.106;16.688;2023-06-01T17:16:25;6.80;;;4.63;;
69463;SDS011;56665;41.106;16.688;2023-06-01T17:19:29;6.47;;;3.90;;
69463;SDS011;56665;41.106;16.688;2023-06-01T17:22:34;5.95;;;3.80;;
69463;SDS011;56665;41.106;16.688;2023-06-01T17:25:38;10.82;;;6.82;;
69463;SDS011;56665;41.106;16.688;2023-06-01T17:28:43;13.15;;;7.90;;
69463;SDS011;56665;41.106;16.688;2023-06-01T17:31:47;14.80;;;9.02;;
69463;SDS011;56665;41.106;16.688;2023-06-01T17:34:51;12.20;;;8.15;;
69463;SDS011;56665;41.106;16.688;2023-06-01T17:37:56;9.13;;;6.10;;
69463;SDS011;56665;41.106;16.688;2023-06-01T17:41:00;7.95;;;5.13;;
69463;SDS011;56665;41.106;16.688;2023-06-01T17:44:04;5.72;;;4.55;;
69463;SDS011;56665;41.106;16.688;2023-06-01T17:47:08;7.28;;;4.50;;
69463;SDS011;56665;41.106;16.688;2023-06-01T17:50:12;7.10;;;4.63;;
69463;SDS011;56665;41.106;16.688;2023-06-01T17:53:16;8.05;;;4.85;;
69463;SDS011;56665;41.106;16.688;2023-06-01T17:56:21;9.65;;;5.28;;
69463;SDS011;56665;41.106;16.688;2023-06-01T17:59:27;11.70;;;6.47;;
69463;SDS011;56665;41.106;16.688;2023-06-01T18:02:30;10.13;;;6.68;;
69463;SDS011;56665;41.106;16.688;2023-06-01T18:05:35;7.97;;;5.75;;
69463;SDS011;56665;41.106;16.688;2023-06-01T18:08:39;7.97;;;5.22;;
69463;SDS011;56665;41.106;16.688;2023-06-01T18:11:44;9.15;;;5.43;;
69463;SDS011;56665;41.106;16.688;2023-06-01T18:14:48;7.45;;;4.70;;
69463;SDS011;56665;41.106;16.688;2023-06-01T18:17:53;6.70;;;4.13;;
69463;SDS011;56665;41.106;16.688;2023-06-01T18:20:56;6.55;;;4.38;;
69463;SDS011;56665;41.106;16.688;2023-06-01T18:24:00;5.63;;;3.80;;
69463;SDS011;56665;41.106;16.688;2023-06-01T18:27:06;6.53;;;4.38;;
69463;SDS011;56665;41.106;16.688;2023-06-01T18:30:10;9.82;;;4.35;;